createdAt,value
2023-05-10T00:01:34.010Z,13.44
2023-05-10T00:04:01.970Z,13.36
2023-05-10T00:06:29.897Z,13.39
2023-05-10T00:08:58.131Z,13.25
2023-05-10T00:11:25.898Z,13.36
2023-05-10T00:13:54.211Z,13.31
2023-05-10T00:16:21.976Z,13.39
2023-05-10T00:18:51.621Z,13.22
2023-05-10T00:21:19.701Z,13.44
2023-05-10T00:23:47.617Z,13.46
2023-05-10T00:26:15.927Z,13.41
2023-05-10T00:28:43.632Z,13.55
2023-05-10T00:31:11.534Z,13.38
2023-05-10T00:33:39.247Z,13.23
2023-05-10T00:36:09.233Z,13.31
2023-05-10T00:38:37.301Z,13.29
2023-05-10T00:41:05.544Z,13.15
2023-05-10T00:43:33.212Z,13.20
2023-05-10T00:46:01.435Z,13.26
2023-05-10T00:48:31.666Z,13.16
2023-05-10T00:50:59.636Z,13.15
2023-05-10T00:53:29.109Z,13.22
2023-05-10T00:55:57.596Z,13.15
2023-05-10T00:58:29.077Z,13.06
2023-05-10T01:00:58.169Z,13.25
2023-05-10T01:03:27.115Z,13.14
2023-05-10T01:05:54.819Z,13.27
2023-05-10T01:08:23.107Z,13.20
2023-05-10T01:10:53.499Z,13.27
2023-05-10T01:13:38.244Z,13.23
2023-05-10T01:16:07.713Z,13.23
2023-05-10T01:18:38.916Z,13.36
2023-05-10T01:21:19.615Z,13.15
2023-05-10T01:24:26.120Z,13.05
2023-05-10T01:27:19.908Z,13.24
2023-05-10T01:30:21.898Z,13.14
2023-05-10T01:33:00.208Z,13.24
2023-05-10T01:35:37.505Z,13.20
2023-05-10T01:38:14.889Z,13.25
2023-05-10T01:40:50.542Z,13.28
2023-05-10T01:43:24.614Z,13.22
2023-05-10T01:46:00.977Z,13.32
2023-05-10T01:48:32.451Z,13.25
2023-05-10T01:51:00.598Z,13.19
2023-05-10T01:53:30.204Z,13.27
2023-05-10T01:55:58.782Z,13.26
2023-05-10T01:58:31.391Z,13.23
2023-05-10T02:01:02.824Z,13.33
2023-05-10T02:03:34.529Z,13.34
2023-05-10T02:06:03.513Z,13.31
2023-05-10T02:08:32.964Z,13.31
2023-05-10T02:11:02.062Z,13.46
2023-05-10T02:13:33.766Z,13.43
2023-05-10T02:16:02.658Z,13.47
2023-05-10T02:18:32.233Z,13.46
2023-05-10T02:21:01.148Z,13.33
2023-05-10T02:23:30.345Z,13.41
2023-05-10T02:26:00.318Z,13.39
2023-05-10T02:28:28.701Z,13.45
2023-05-10T02:30:57.233Z,13.53
2023-05-10T02:33:26.340Z,13.43
2023-05-10T02:35:56.892Z,13.61
2023-05-10T02:38:26.201Z,13.41
2023-05-10T02:40:55.979Z,13.28
2023-05-10T02:43:25.940Z,13.55
2023-05-10T02:45:54.030Z,13.59
2023-05-10T02:48:21.746Z,13.43
2023-05-10T02:50:52.781Z,13.31
2023-05-10T02:53:25.948Z,13.15
2023-05-10T02:55:59.334Z,13.14
2023-05-10T02:58:27.688Z,13.06
2023-05-10T03:00:55.801Z,13.17
2023-05-10T03:03:23.864Z,13.14
2023-05-10T03:05:51.500Z,13.08
2023-05-10T03:08:19.401Z,13.09
2023-05-10T03:10:57.855Z,13.03
2023-05-10T03:13:32.367Z,12.96
2023-05-10T03:16:06.678Z,13.04
2023-05-10T03:18:43.965Z,12.89
2023-05-10T03:21:14.380Z,12.94
2023-05-10T03:23:45.768Z,13.00
2023-05-10T03:26:22.976Z,12.90
2023-05-10T03:28:51.874Z,12.87
2023-05-10T03:31:20.518Z,12.94
2023-05-10T03:33:49.829Z,12.98
2023-05-10T03:36:17.742Z,13.00
2023-05-10T03:38:45.521Z,13.06
2023-05-10T03:41:13.220Z,12.98
2023-05-10T03:43:42.529Z,12.88
2023-05-10T03:46:10.865Z,13.04
2023-05-10T03:48:38.925Z,12.96
2023-05-10T03:51:06.723Z,12.81
2023-05-10T03:53:34.426Z,12.79
2023-05-10T03:56:02.254Z,12.71
2023-05-10T03:58:30.055Z,12.78
2023-05-10T04:00:59.187Z,12.75
2023-05-10T04:03:27.705Z,12.66
2023-05-10T04:06:01.501Z,12.81
2023-05-10T04:08:29.422Z,12.90
2023-05-10T04:10:57.217Z,12.82
2023-05-10T04:13:25.094Z,12.89
2023-05-10T04:15:52.971Z,12.89
2023-05-10T04:18:22.029Z,12.96
2023-05-10T04:20:49.781Z,13.01
2023-05-10T04:23:17.897Z,12.96
2023-05-10T04:25:45.779Z,13.05
2023-05-10T04:28:13.587Z,13.03
2023-05-10T04:30:41.719Z,13.14
2023-05-10T04:33:09.655Z,13.20
2023-05-10T04:35:39.827Z,13.12
2023-05-10T04:38:07.638Z,13.08
2023-05-10T04:40:35.617Z,13.16
2023-05-10T04:43:03.716Z,13.13
2023-05-10T04:45:31.814Z,13.24
2023-05-10T04:47:59.475Z,13.15
2023-05-10T04:50:27.191Z,13.18
2023-05-10T04:52:56.315Z,13.36
2023-05-10T04:55:24.109Z,13.35
2023-05-10T04:57:51.858Z,13.25
2023-05-10T05:00:20.510Z,13.28
2023-05-10T05:02:48.645Z,13.29
2023-05-10T05:05:16.627Z,13.34
2023-05-10T05:07:44.256Z,13.38
2023-05-10T05:10:13.608Z,13.46
2023-05-10T05:12:41.697Z,13.52
2023-05-10T05:15:10.884Z,13.63
2023-05-10T05:17:38.799Z,13.88
2023-05-10T05:20:08.104Z,13.90
2023-05-10T05:22:35.834Z,13.83
2023-05-10T05:25:04.518Z,13.91
2023-05-10T05:27:34.092Z,13.84
2023-05-10T05:30:01.789Z,13.89
2023-05-10T05:32:29.911Z,14.07
2023-05-10T05:34:57.606Z,14.34
2023-05-10T05:37:25.660Z,14.36
2023-05-10T05:39:53.569Z,14.39
2023-05-10T05:42:21.519Z,14.32
2023-05-10T05:44:50.692Z,14.41
2023-05-10T05:47:18.498Z,14.34
2023-05-10T05:49:47.316Z,14.09
2023-05-10T05:52:15.475Z,14.01
2023-05-10T05:54:43.257Z,14.11
2023-05-10T05:57:11.140Z,14.23
2023-05-10T05:59:43.015Z,13.93
2023-05-10T06:02:12.550Z,14.11
2023-05-10T06:04:41.583Z,14.33
2023-05-10T06:07:12.541Z,14.53
2023-05-10T06:09:40.232Z,14.40
2023-05-10T06:12:10.815Z,14.74
2023-05-10T06:14:38.653Z,14.58
2023-05-10T06:17:07.708Z,15.01
2023-05-10T06:19:37.720Z,15.02
2023-05-10T06:22:05.411Z,15.07
2023-05-10T06:24:33.329Z,14.81
2023-05-10T06:27:01.625Z,14.89
2023-05-10T06:29:29.427Z,15.24
2023-05-10T06:31:57.090Z,15.59
2023-05-10T06:34:24.915Z,15.23
2023-05-10T06:36:54.063Z,15.11
2023-05-10T06:39:22.230Z,14.95
2023-05-10T06:41:49.968Z,15.26
2023-05-10T06:44:17.672Z,15.17
2023-05-10T06:46:45.559Z,15.28
2023-05-10T06:49:13.255Z,15.03
2023-05-10T06:51:41.089Z,15.24
2023-05-10T06:54:10.371Z,15.55
2023-05-10T06:56:38.476Z,15.65
2023-05-10T06:59:06.222Z,15.95
2023-05-10T07:01:34.074Z,16.05
2023-05-10T07:04:01.698Z,16.26
2023-05-10T07:06:33.869Z,15.92
2023-05-10T07:09:02.168Z,15.94
2023-05-10T07:11:31.564Z,16.19
2023-05-10T07:13:59.660Z,16.31
2023-05-10T07:16:28.013Z,16.65
2023-05-10T07:18:56.204Z,16.73
2023-05-10T07:21:25.068Z,16.75
2023-05-10T07:23:52.810Z,16.58
2023-05-10T07:26:20.623Z,16.55
2023-05-10T07:28:49.633Z,16.27
2023-05-10T07:31:17.367Z,16.39
2023-05-10T07:33:45.350Z,16.18
2023-05-10T07:36:13.792Z,15.97
2023-05-10T07:38:41.822Z,16.16
2023-05-10T07:41:09.551Z,16.17
2023-05-10T07:43:37.182Z,15.82
2023-05-10T07:46:06.630Z,15.82
2023-05-10T07:48:34.348Z,15.85
2023-05-10T07:51:01.987Z,15.86
2023-05-10T07:53:29.694Z,15.99
2023-05-10T07:56:00.185Z,15.81
2023-05-10T07:58:28.161Z,15.80
2023-05-10T08:00:55.980Z,15.89
2023-05-10T08:03:25.117Z,15.80
2023-05-10T08:05:52.926Z,15.78
2023-05-10T08:08:22.542Z,16.09
2023-05-10T08:10:50.208Z,16.19
2023-05-10T08:13:17.821Z,16.10
2023-05-10T08:18:48.808Z,16.28
2023-05-10T08:21:17.416Z,16.04
2023-05-10T08:23:45.642Z,16.09
2023-05-10T08:26:13.588Z,16.48
2023-05-10T08:28:41.519Z,16.59
2023-05-10T08:31:12.049Z,16.81
2023-05-10T08:34:20.480Z,17.20
2023-05-10T08:36:29.336Z,17.15
2023-05-10T08:38:57.235Z,17.19
2023-05-10T08:41:26.745Z,17.89
2023-05-10T08:43:55.816Z,18.20
2023-05-10T08:46:24.985Z,18.74
2023-05-10T08:48:53.622Z,18.32
2023-05-10T08:51:29.183Z,17.62
2023-05-10T08:53:58.971Z,17.72
2023-05-10T08:56:26.881Z,17.33
2023-05-10T08:58:54.834Z,17.14
2023-05-10T09:01:24.231Z,16.73
2023-05-10T09:03:53.314Z,15.96
2023-05-10T09:06:21.272Z,16.13
2023-05-10T09:08:50.110Z,15.80
2023-05-10T09:11:19.759Z,16.15
2023-05-10T09:13:50.269Z,16.46
2023-05-10T09:16:21.579Z,16.06
2023-05-10T09:18:50.827Z,16.34
2023-05-10T09:21:19.099Z,16.38
2023-05-10T09:23:48.703Z,16.11
2023-05-10T09:26:17.078Z,15.93
2023-05-10T09:28:57.116Z,16.02
2023-05-10T09:31:26.672Z,16.23
2023-05-10T09:33:59.333Z,16.23
2023-05-10T09:36:27.186Z,16.27
2023-05-10T09:38:56.285Z,16.26
2023-05-10T09:41:25.993Z,15.89
2023-05-10T09:43:58.048Z,16.09
2023-05-10T09:46:26.020Z,15.89
2023-05-10T09:48:54.236Z,15.79
2023-05-10T09:51:22.715Z,15.98
2023-05-10T09:54:10.575Z,16.21
2023-05-10T09:56:41.106Z,16.53
2023-05-10T09:59:12.562Z,16.77
2023-05-10T10:01:41.493Z,17.40
2023-05-10T10:04:11.899Z,17.30
2023-05-10T10:06:41.578Z,17.35
2023-05-10T10:09:10.189Z,17.65
2023-05-10T10:11:40.854Z,17.75
2023-05-10T10:14:09.956Z,17.52
2023-05-10T10:16:45.796Z,17.96
2023-05-10T10:19:20.996Z,17.18
2023-05-10T10:21:48.643Z,17.09
2023-05-10T10:24:16.765Z,17.54
2023-05-10T10:26:46.431Z,17.16
2023-05-10T10:29:24.167Z,16.58
2023-05-10T10:32:02.554Z,16.96
2023-05-10T10:34:32.291Z,16.43
2023-05-10T10:37:07.531Z,16.03
2023-05-10T10:39:37.959Z,16.22
2023-05-10T10:42:06.417Z,16.57
2023-05-10T10:44:41.459Z,16.67
2023-05-10T10:47:25.677Z,16.34
2023-05-10T10:50:04.437Z,16.82
2023-05-10T10:52:36.604Z,16.59
2023-05-10T10:55:07.590Z,16.67
2023-05-10T10:57:44.728Z,16.82
2023-05-10T11:00:41.264Z,16.68
2023-05-10T11:03:14.733Z,17.01
2023-05-10T11:05:44.758Z,16.85
2023-05-10T11:08:18.942Z,16.96
2023-05-10T11:10:55.808Z,17.29
2023-05-10T11:13:31.398Z,17.56
2023-05-10T11:16:01.541Z,17.38
2023-05-10T11:18:31.273Z,17.14
2023-05-10T11:21:01.018Z,17.01
2023-05-10T11:23:33.924Z,17.27
2023-05-10T11:26:02.637Z,17.23
2023-05-10T11:28:30.317Z,16.86
2023-05-10T11:31:00.293Z,16.94
2023-05-10T11:33:28.265Z,16.73
2023-05-10T11:35:56.507Z,17.03
2023-05-10T11:38:24.348Z,17.25
2023-05-10T11:40:54.344Z,17.20
2023-05-10T11:43:29.384Z,17.18
2023-05-10T11:45:57.848Z,17.31
2023-05-10T11:48:26.949Z,17.26
2023-05-10T11:50:58.139Z,16.81
2023-05-10T11:53:28.130Z,16.73
2023-05-10T11:55:56.107Z,16.71
2023-05-10T11:58:24.405Z,16.69
2023-05-10T12:00:52.630Z,16.63
2023-05-10T12:03:20.711Z,16.44
2023-05-10T12:05:50.261Z,16.36
2023-05-10T12:08:22.967Z,16.56
2023-05-10T12:10:50.914Z,16.68
2023-05-10T12:13:19.834Z,16.83
2023-05-10T12:15:47.939Z,16.88
2023-05-10T12:18:16.580Z,16.86
2023-05-10T12:20:44.559Z,16.96
2023-05-10T12:23:15.464Z,17.55
2023-05-10T12:25:43.457Z,17.61
2023-05-10T12:28:11.605Z,18.15
2023-05-10T12:30:40.149Z,18.18
2023-05-10T12:33:11.229Z,18.19
2023-05-10T12:35:51.110Z,17.91
2023-05-10T12:38:31.877Z,17.97
2023-05-10T12:41:00.756Z,18.03
2023-05-10T12:43:29.686Z,18.12
2023-05-10T12:45:58.021Z,17.82
2023-05-10T12:48:25.972Z,17.96
2023-05-10T12:50:53.692Z,18.00
2023-05-10T12:53:21.556Z,17.66
2023-05-10T12:55:50.614Z,17.73
2023-05-10T12:58:34.350Z,17.94
2023-05-10T13:01:03.849Z,17.73
2023-05-10T13:03:32.035Z,17.58
2023-05-10T13:06:00.965Z,17.85
2023-05-10T13:08:30.968Z,18.18
2023-05-10T13:11:00.075Z,17.98
2023-05-10T13:13:28.228Z,18.11
2023-05-10T13:15:56.251Z,18.04
2023-05-10T13:18:25.462Z,17.72
2023-05-10T13:20:53.563Z,17.97
2023-05-10T13:23:21.337Z,17.96
2023-05-10T13:25:49.374Z,18.02
2023-05-10T13:28:18.582Z,17.82
2023-05-10T13:30:46.586Z,18.05
2023-05-10T13:33:14.836Z,18.03
2023-05-10T13:35:42.747Z,18.11
2023-05-10T13:38:10.782Z,18.16
2023-05-10T13:40:38.657Z,18.03
2023-05-10T13:43:06.470Z,18.12
2023-05-10T13:45:36.037Z,18.31
2023-05-10T13:48:03.983Z,18.91
2023-05-10T13:50:32.151Z,18.96
2023-05-10T13:53:00.232Z,18.88
2023-05-10T13:55:28.148Z,18.61
2023-05-10T13:57:56.200Z,18.36
2023-05-10T14:00:23.921Z,18.77
2023-05-10T14:02:53.632Z,18.70
2023-05-10T14:05:25.525Z,18.59
2023-05-10T14:07:54.825Z,18.83
2023-05-10T14:10:22.732Z,18.85
2023-05-10T14:12:50.564Z,18.95
2023-05-10T14:15:19.263Z,19.29
2023-05-10T14:17:47.275Z,19.86
2023-05-10T14:20:16.683Z,20.22
2023-05-10T14:22:44.680Z,20.01
2023-05-10T14:25:12.757Z,20.49
2023-05-10T14:27:40.485Z,20.77
2023-05-10T14:30:09.660Z,20.92
2023-05-10T14:32:39.005Z,20.86
2023-05-10T14:35:12.931Z,20.61
2023-05-10T14:37:42.774Z,20.66
2023-05-10T14:40:11.482Z,20.82
2023-05-10T14:42:39.442Z,20.29
2023-05-10T14:45:09.778Z,20.04
2023-05-10T14:47:37.710Z,19.51
2023-05-10T14:50:06.164Z,19.14
2023-05-10T14:52:34.492Z,20.02
2023-05-10T14:55:04.360Z,19.78
2023-05-10T14:57:32.320Z,20.01
2023-05-10T15:00:00.169Z,20.61
2023-05-10T15:02:28.394Z,20.11
2023-05-10T15:04:56.778Z,20.35
2023-05-10T15:07:25.021Z,20.19
2023-05-10T15:09:53.431Z,19.98
2023-05-10T15:12:22.621Z,20.19
2023-05-10T15:14:50.549Z,20.79
2023-05-10T15:17:18.572Z,20.96
2023-05-10T15:19:46.374Z,21.08
2023-05-10T15:22:14.100Z,20.18
2023-05-10T15:24:42.251Z,20.03
2023-05-10T15:27:10.000Z,20.43
2023-05-10T15:29:39.205Z,19.71
2023-05-10T15:32:07.178Z,19.94
2023-05-10T15:34:35.777Z,19.99
2023-05-10T15:37:05.041Z,20.02
2023-05-10T15:39:32.895Z,20.46
2023-05-10T15:42:00.719Z,20.52
2023-05-10T15:44:28.576Z,19.87
2023-05-10T15:46:58.175Z,19.54
2023-05-10T15:49:26.006Z,19.72
2023-05-10T15:51:53.736Z,20.19
2023-05-10T15:54:21.476Z,19.74
2023-05-10T15:56:49.525Z,19.54
2023-05-10T15:59:17.196Z,19.65
2023-05-10T16:01:45.073Z,19.69
2023-05-10T16:04:14.696Z,19.64
2023-05-10T16:06:42.719Z,20.05
2023-05-10T16:09:10.646Z,19.86
2023-05-10T16:11:38.879Z,19.57
2023-05-10T16:14:07.234Z,19.42
2023-05-10T16:16:35.751Z,19.28
2023-05-10T16:19:04.418Z,19.28
2023-05-10T16:21:33.752Z,19.76
2023-05-10T16:24:02.030Z,19.66
2023-05-10T16:26:29.857Z,19.68
2023-05-10T16:28:57.696Z,19.31
2023-05-10T16:31:25.558Z,19.72
2023-05-10T16:33:53.411Z,19.34
2023-05-10T16:36:21.284Z,18.87
2023-05-10T16:38:50.691Z,19.35
2023-05-10T16:41:18.423Z,19.47
2023-05-10T16:43:47.032Z,19.45
2023-05-10T16:46:14.845Z,19.44
2023-05-10T16:48:43.051Z,19.35
2023-05-10T16:51:11.305Z,19.48
2023-05-10T16:53:39.045Z,18.80
2023-05-10T16:56:08.554Z,19.23
2023-05-10T16:58:36.412Z,18.75
2023-05-10T17:01:04.298Z,18.79
2023-05-10T17:03:32.057Z,18.65
2023-05-10T17:05:59.985Z,18.87
2023-05-10T17:08:28.198Z,18.73
2023-05-10T17:10:56.848Z,18.85
2023-05-10T17:13:26.199Z,18.91
2023-05-10T17:15:54.165Z,18.97
2023-05-10T17:18:22.303Z,19.14
2023-05-10T17:20:51.068Z,18.98
2023-05-10T17:23:19.359Z,19.24
2023-05-10T17:25:47.117Z,18.90
2023-05-10T17:28:14.812Z,18.87
2023-05-10T17:30:47.701Z,18.50
2023-05-10T17:33:15.674Z,18.08
2023-05-10T17:35:46.376Z,18.13
2023-05-10T17:38:14.349Z,18.28
2023-05-10T17:40:42.530Z,18.11
2023-05-10T17:43:11.671Z,18.12
2023-05-10T17:45:39.592Z,17.99
2023-05-10T17:48:11.462Z,17.97
2023-05-10T17:50:39.379Z,17.73
2023-05-10T17:53:07.272Z,17.88
2023-05-10T17:55:35.408Z,17.86
2023-05-10T17:58:03.058Z,17.70
2023-05-10T18:00:31.024Z,17.59
2023-05-10T18:02:58.881Z,17.53
2023-05-10T18:05:28.355Z,17.67
2023-05-10T18:08:08.914Z,17.81
2023-05-10T18:10:50.876Z,17.70
2023-05-10T18:13:30.149Z,17.58
2023-05-10T18:15:58.352Z,17.35
2023-05-10T18:19:04.855Z,17.28
2023-05-10T18:21:34.906Z,17.21
2023-05-10T18:24:03.876Z,17.22
2023-05-10T18:26:38.116Z,17.20
2023-05-10T18:29:10.749Z,17.11
2023-05-10T18:31:43.249Z,17.00
2023-05-10T18:34:17.485Z,17.07
2023-05-10T18:36:47.870Z,17.03
2023-05-10T18:39:18.188Z,16.96
2023-05-10T18:41:47.855Z,16.79
2023-05-10T18:44:17.224Z,16.72
2023-05-10T18:46:45.373Z,16.62
2023-05-10T18:49:13.590Z,16.61
2023-05-10T18:51:41.895Z,16.47
2023-05-10T18:54:11.675Z,16.38
2023-05-10T18:56:44.582Z,16.22
2023-05-10T18:59:13.708Z,16.31
2023-05-10T19:01:43.160Z,16.18
2023-05-10T19:04:13.938Z,16.04
2023-05-10T19:06:42.391Z,16.12
2023-05-10T19:09:12.084Z,16.03
2023-05-10T19:11:43.670Z,16.16
2023-05-10T19:14:11.823Z,16.05
2023-05-10T19:16:41.951Z,16.08
2023-05-10T19:19:10.321Z,15.91
2023-05-10T19:21:39.283Z,15.76
2023-05-10T19:24:08.341Z,15.67
2023-05-10T19:26:37.999Z,15.56
2023-05-10T19:29:06.120Z,15.51
2023-05-10T19:31:34.858Z,15.35
2023-05-10T19:34:05.371Z,15.44
2023-05-10T19:36:34.336Z,15.26
2023-05-10T19:39:02.413Z,15.25
2023-05-10T19:41:30.137Z,15.28
2023-05-10T19:43:59.929Z,15.22
2023-05-10T19:46:28.014Z,15.21
2023-05-10T19:49:00.886Z,15.07
2023-05-10T19:51:28.657Z,15.10
2023-05-10T19:53:56.699Z,15.12
2023-05-10T19:56:24.474Z,15.17
2023-05-10T19:58:52.241Z,15.05
2023-05-10T20:01:21.525Z,14.99
2023-05-10T20:03:49.367Z,14.94
2023-05-10T20:06:17.313Z,14.73
2023-05-10T20:08:45.119Z,14.55
2023-05-10T20:11:13.207Z,14.63
2023-05-10T20:13:41.207Z,14.60
2023-05-10T20:16:09.103Z,14.54
2023-05-10T20:18:38.495Z,14.62
2023-05-10T20:21:06.462Z,14.35
2023-05-10T20:23:34.530Z,14.31
2023-05-10T20:26:02.734Z,14.19
2023-05-10T20:28:30.811Z,14.19
2023-05-10T20:30:58.957Z,14.14
2023-05-10T20:33:26.818Z,14.00
2023-05-10T20:35:55.951Z,13.76
2023-05-10T20:38:23.687Z,14.04
2023-05-10T20:40:51.844Z,14.17
2023-05-10T20:43:21.349Z,14.14
2023-05-10T20:45:49.217Z,14.02
2023-05-10T20:48:17.583Z,13.91
2023-05-10T20:50:45.382Z,14.02
2023-05-10T20:53:15.363Z,14.02
2023-05-10T20:55:43.121Z,14.09
2023-05-10T20:58:11.011Z,14.10
2023-05-10T21:00:38.753Z,14.03
2023-05-10T21:03:06.680Z,13.96
2023-05-10T21:05:34.793Z,13.87
2023-05-10T21:08:02.744Z,13.73
2023-05-10T21:10:31.851Z,13.55
2023-05-10T21:12:59.873Z,13.56
2023-05-10T21:15:27.847Z,13.48
2023-05-10T21:17:55.722Z,13.47
2023-05-10T21:20:24.101Z,13.37
2023-05-10T21:22:52.034Z,13.10
2023-05-10T21:25:19.938Z,13.09
2023-05-10T21:27:49.071Z,13.05
2023-05-10T21:30:17.104Z,13.10
2023-05-10T21:32:45.005Z,12.86
2023-05-10T21:35:12.853Z,12.86
2023-05-10T21:37:40.802Z,12.83
2023-05-10T21:40:09.426Z,12.71
2023-05-10T21:42:37.163Z,12.73
2023-05-10T21:45:07.412Z,12.67
2023-05-10T21:47:35.408Z,12.44
2023-05-10T21:50:03.572Z,12.41
2023-05-10T21:52:31.352Z,12.37
2023-05-10T21:54:59.290Z,12.28
2023-05-10T21:57:27.090Z,12.29
2023-05-10T21:59:54.852Z,12.12
2023-05-10T22:02:24.528Z,12.00
2023-05-10T22:04:52.662Z,11.95
2023-05-10T22:07:20.812Z,12.05
2023-05-10T22:09:48.590Z,11.89
2023-05-10T22:12:16.457Z,11.81
2023-05-10T22:14:44.261Z,11.98
2023-05-10T22:17:12.879Z,12.00
2023-05-10T22:19:42.121Z,12.07
2023-05-10T22:22:09.910Z,11.95
2023-05-10T22:24:38.014Z,12.05
2023-05-10T22:27:06.963Z,11.94
2023-05-10T22:29:34.883Z,12.07
2023-05-10T22:32:05.830Z,11.85
2023-05-10T22:34:33.626Z,12.09
2023-05-10T22:37:03.504Z,11.94
2023-05-10T22:39:31.622Z,11.84
2023-05-10T22:41:59.514Z,11.94
2023-05-10T22:44:27.292Z,11.82
2023-05-10T22:46:55.065Z,11.90
2023-05-10T22:49:22.928Z,11.73
2023-05-10T22:51:50.652Z,11.89
2023-05-10T22:54:19.815Z,11.77
2023-05-10T22:56:47.662Z,11.71
2023-05-10T22:59:15.876Z,11.84
2023-05-10T23:01:43.928Z,11.71
2023-05-10T23:04:11.823Z,11.65
2023-05-10T23:06:39.671Z,11.70
2023-05-10T23:09:07.536Z,11.63
2023-05-10T23:11:36.768Z,11.65
2023-05-10T23:14:04.589Z,11.53
2023-05-10T23:16:32.318Z,11.47
2023-05-10T23:19:00.273Z,11.41
2023-05-10T23:21:30.623Z,11.44
2023-05-10T23:23:59.865Z,11.23
2023-05-10T23:26:27.711Z,11.25
2023-05-10T23:28:56.779Z,11.27
2023-05-10T23:31:24.475Z,11.29
2023-05-10T23:33:52.320Z,11.22
2023-05-10T23:36:20.374Z,11.26
2023-05-10T23:38:48.363Z,11.26
2023-05-10T23:41:16.138Z,11.26
2023-05-10T23:43:44.301Z,11.27
2023-05-10T23:46:13.580Z,11.36
2023-05-10T23:48:41.877Z,11.25
2023-05-10T23:51:09.654Z,11.32
2023-05-10T23:53:37.974Z,11.24
2023-05-10T23:56:06.635Z,11.29
2023-05-10T23:58:34.501Z,11.26
